Charter Quote
Worldwide +1-877-727-2538 Call
Select Language Lang
SAFETY RELIABILITY EXPERIENCE

Private Jet Charter Services - Qingshan (ZUXC)

Paramount Business Jets offers private jet charter flights and luxury airliner charters to and from Qingshan.

AIRPORT INFORMATION
ICAOZUXC
LOCATIONXichang, China
FACILITY TYPEAIRPORT

At Paramount Business Jets you can hire chartered private jets to and from Qingshan with as little as 4 hours of notice. All flights booked via Paramount Business Jets are operated by certified direct air carriers that meet and exceed the FAA part 135 and 121 protocol or a foreign equivalent safety authority. Furthermore, Paramount Business Jets subscribes to ARGUS for their third party safety checks of operators, aircraft, and crews prior each and every flight to and from Qingshan and worldwide.

  • Quote a trip using Qingshan or call us 24/7 - 365 days a year at +1-877-727-2538.
Questions? Call +1-877-727-2538

METAR Weather Data at Qingshan, ZUXC

STATIONZUXC
OBSERVEDFri May 10, 09:00 UTC
NOWMon Jul 22, 09:53 UTC
AGE1752:53 hr ago
WINDS at 16 mph
VISIBILITY16 miles
CLOUDSpartly cloudy
TEMP86°F (30°C)
DEWPT48°F (9°C)
HUMIDITY27%
BAROMETER1007 hPa (29.74 in Hg)
METARZUXC 100900Z 18007MPS 9999 FEW050 30/09 Q1007 NOSIG

Call us on +1-877-727-2538 (24 Hours) to Hire a Private Jet or Get a Quick Quote.

Find Airports Near any Location

Processing
...